createdAt,value
2018-07-30T00:03:15.321Z,18.70
2018-07-30T00:07:19.552Z,18.80
2018-07-30T00:11:24.084Z,18.80
2018-07-30T00:15:28.361Z,18.70
2018-07-30T00:19:32.649Z,18.80
2018-07-30T00:23:37.036Z,18.80
2018-07-30T00:27:41.354Z,18.80
2018-07-30T00:31:45.606Z,18.80
2018-07-30T00:35:49.949Z,18.70
2018-07-30T00:39:54.570Z,18.80
2018-07-30T00:43:58.886Z,18.70
2018-07-30T00:48:03.325Z,18.60
2018-07-30T00:52:07.643Z,18.60
2018-07-30T00:56:11.901Z,18.50
2018-07-30T01:00:16.393Z,18.50
2018-07-30T01:04:20.632Z,18.60
2018-07-30T01:08:24.912Z,18.80
2018-07-30T01:12:29.160Z,18.60
2018-07-30T01:16:33.418Z,18.50
2018-07-30T01:20:38.169Z,18.50
2018-07-30T01:24:42.527Z,18.50
2018-07-30T01:28:46.755Z,18.60
2018-07-30T01:32:51.140Z,18.40
2018-07-30T01:36:55.503Z,18.40
2018-07-30T01:40:59.777Z,18.40
2018-07-30T01:45:04.148Z,18.30
2018-07-30T01:49:08.468Z,18.30
2018-07-30T01:53:12.670Z,18.30
2018-07-30T01:57:17.049Z,18.40
2018-07-30T02:01:21.275Z,18.40
2018-07-30T02:05:25.602Z,18.30
2018-07-30T02:09:29.926Z,18.30
2018-07-30T02:13:34.147Z,18.10
2018-07-30T02:17:38.452Z,18.20
2018-07-30T02:21:42.844Z,18.10
2018-07-30T02:25:47.083Z,18.10
2018-07-30T02:29:51.442Z,18.10
2018-07-30T02:33:55.993Z,18.00
2018-07-30T02:38:00.349Z,17.90
2018-07-30T02:42:04.943Z,17.80
2018-07-30T02:46:09.360Z,17.80
2018-07-30T02:50:13.636Z,17.70
2018-07-30T02:54:17.894Z,17.70
2018-07-30T02:58:22.160Z,17.70
2018-07-30T03:02:26.519Z,17.60
2018-07-30T03:06:30.735Z,17.70
2018-07-30T03:10:35.170Z,17.70
2018-07-30T03:14:39.484Z,17.80
2018-07-30T03:18:43.736Z,17.70
2018-07-30T03:22:48.091Z,17.70
2018-07-30T03:26:52.406Z,17.60
2018-07-30T03:30:56.777Z,17.60
2018-07-30T03:35:01.079Z,17.60
2018-07-30T03:39:06.809Z,17.70
2018-07-30T03:43:11.173Z,17.70
2018-07-30T03:47:15.433Z,17.60
2018-07-30T03:51:19.822Z,17.60
2018-07-30T03:55:24.015Z,17.60
2018-07-30T03:59:28.380Z,17.60
2018-07-30T04:03:32.708Z,17.80
2018-07-30T04:07:37.369Z,17.90
2018-07-30T04:11:41.632Z,17.80
2018-07-30T04:15:45.945Z,17.90
2018-07-30T04:19:50.197Z,17.90
2018-07-30T04:23:54.413Z,18.20
2018-07-30T04:27:58.724Z,18.30
2018-07-30T04:32:02.945Z,18.40
2018-07-30T04:36:07.306Z,18.60
2018-07-30T04:40:11.825Z,18.90
2018-07-30T04:44:16.052Z,19.00
2018-07-30T04:48:20.354Z,19.30
2018-07-30T04:52:24.606Z,19.50
2018-07-30T04:56:28.858Z,19.50
2018-07-30T05:00:33.246Z,19.70
2018-07-30T05:04:37.704Z,19.80
2018-07-30T05:08:41.888Z,19.80
2018-07-30T05:12:46.204Z,19.70
2018-07-30T05:16:50.379Z,19.70
2018-07-30T05:20:54.777Z,19.70
2018-07-30T05:24:58.990Z,19.70
2018-07-30T05:29:03.187Z,19.80
2018-07-30T05:33:07.479Z,19.80
2018-07-30T05:37:11.716Z,19.80
2018-07-30T05:41:21.808Z,19.70
2018-07-30T05:45:27.032Z,19.80
2018-07-30T05:49:31.240Z,20.00
2018-07-30T05:53:35.916Z,20.30
2018-07-30T05:57:40.106Z,20.40
2018-07-30T06:01:44.328Z,20.60
2018-07-30T06:05:48.514Z,20.70
2018-07-30T06:09:52.736Z,20.90
2018-07-30T06:13:56.994Z,21.10
2018-07-30T06:18:01.415Z,21.40
2018-07-30T06:22:05.689Z,21.60
2018-07-30T06:26:10.029Z,21.90
2018-07-30T06:30:14.389Z,22.20
2018-07-30T06:34:18.793Z,22.30
2018-07-30T06:38:23.088Z,22.60
2018-07-30T06:42:27.348Z,22.80
2018-07-30T06:46:31.604Z,22.80
2018-07-30T06:50:35.825Z,22.90
2018-07-30T06:54:40.075Z,23.00
2018-07-30T06:58:44.436Z,23.30
2018-07-30T07:02:48.789Z,23.40
2018-07-30T07:06:53.059Z,23.50
2018-07-30T07:10:57.303Z,23.80
2018-07-30T07:15:01.574Z,24.00
2018-07-30T07:19:05.865Z,24.20
2018-07-30T07:23:10.188Z,24.50
2018-07-30T07:27:14.377Z,24.70
2018-07-30T07:31:18.773Z,25.00
2018-07-30T07:35:23.002Z,25.20
2018-07-30T07:39:27.284Z,25.40
2018-07-30T07:43:31.486Z,25.60
2018-07-30T07:47:35.761Z,25.90
2018-07-30T07:51:40.104Z,26.30
2018-07-30T07:55:44.397Z,27.10
2018-07-30T07:59:48.625Z,27.70
2018-07-30T08:03:52.941Z,27.90
2018-07-30T08:07:57.270Z,28.20
2018-07-30T08:12:01.621Z,28.30
2018-07-30T08:16:06.257Z,28.40
2018-07-30T08:20:10.625Z,28.30
2018-07-30T08:24:15.100Z,28.50
2018-07-30T08:28:19.325Z,29.20
2018-07-30T08:32:23.589Z,29.50
2018-07-30T08:36:28.407Z,30.00
2018-07-30T08:40:32.794Z,30.20
2018-07-30T08:44:37.210Z,30.60
2018-07-30T08:48:41.452Z,30.80
2018-07-30T08:52:45.719Z,31.60
2018-07-30T08:56:50.094Z,31.70
2018-07-30T09:00:54.375Z,32.10
2018-07-30T09:04:58.756Z,33.10
2018-07-30T09:09:03.021Z,33.20
2018-07-30T09:13:07.751Z,33.00
2018-07-30T09:17:11.978Z,32.80
2018-07-30T09:21:16.213Z,33.50
2018-07-30T09:25:20.574Z,33.70
2018-07-30T09:29:24.815Z,34.30
2018-07-30T09:33:29.213Z,34.30
2018-07-30T09:37:33.522Z,34.40
2018-07-30T09:41:37.895Z,33.90
2018-07-30T09:45:42.195Z,33.30
2018-07-30T09:49:46.454Z,33.90
2018-07-30T09:53:50.922Z,34.30
2018-07-30T09:57:55.237Z,34.20
2018-07-30T10:01:59.588Z,34.20
2018-07-30T10:06:04.076Z,33.20
2018-07-30T10:10:08.470Z,33.30
2018-07-30T10:14:12.745Z,33.90
2018-07-30T10:18:17.029Z,34.70
2018-07-30T10:22:21.507Z,34.30
2018-07-30T10:26:25.813Z,33.70
2018-07-30T10:30:30.241Z,34.50
2018-07-30T10:34:34.565Z,36.60
2018-07-30T10:38:38.855Z,37.50
2018-07-30T10:42:43.126Z,37.30
2018-07-30T10:46:47.474Z,37.30
2018-07-30T10:50:51.732Z,37.80
2018-07-30T10:54:56.503Z,36.60
2018-07-30T10:59:00.867Z,37.00
2018-07-30T11:03:05.130Z,38.00
2018-07-30T11:07:09.445Z,37.90
2018-07-30T11:11:13.742Z,37.80
2018-07-30T11:15:17.982Z,36.80
2018-07-30T11:19:22.381Z,35.90
2018-07-30T11:23:26.637Z,34.60
2018-07-30T11:27:30.995Z,34.50
2018-07-30T11:31:35.236Z,33.30
2018-07-30T11:35:39.524Z,32.50
2018-07-30T11:39:43.994Z,32.80
2018-07-30T11:43:48.226Z,34.10
2018-07-30T11:47:52.534Z,34.60
2018-07-30T11:51:56.863Z,35.40
2018-07-30T11:56:01.128Z,35.40
2018-07-30T12:00:05.486Z,34.90
2018-07-30T12:04:09.774Z,36.40
2018-07-30T12:08:14.108Z,36.90
2018-07-30T12:12:18.516Z,38.90
2018-07-30T12:16:22.872Z,38.80
2018-07-30T12:20:27.159Z,38.00
2018-07-30T12:24:31.496Z,37.60
2018-07-30T12:28:35.687Z,35.70
2018-07-30T12:32:39.934Z,35.20
2018-07-30T12:36:44.243Z,34.40
2018-07-30T12:40:48.467Z,34.80
2018-07-30T12:44:52.695Z,33.90
2018-07-30T12:48:57.048Z,33.30
2018-07-30T12:53:01.232Z,32.70
2018-07-30T12:57:05.592Z,32.80
2018-07-30T13:01:09.819Z,32.60
2018-07-30T13:05:14.089Z,32.40
2018-07-30T13:09:18.375Z,31.70
2018-07-30T13:13:22.698Z,30.90
2018-07-30T13:17:26.948Z,30.50
2018-07-30T13:21:31.164Z,30.20
2018-07-30T13:25:35.720Z,31.20
2018-07-30T13:29:40.017Z,34.30
2018-07-30T13:33:44.317Z,37.50
2018-07-30T13:37:48.554Z,39.90
2018-07-30T13:41:52.740Z,40.40
2018-07-30T13:45:57.160Z,39.50
2018-07-30T13:50:01.375Z,40.60
2018-07-30T13:54:05.695Z,39.20
2018-07-30T13:58:10.045Z,38.30
2018-07-30T14:02:14.307Z,36.80
2018-07-30T14:06:18.806Z,35.20
2018-07-30T14:10:22.966Z,34.00
2018-07-30T14:14:27.502Z,32.90
2018-07-30T14:18:31.796Z,31.80
2018-07-30T14:22:36.038Z,31.60
2018-07-30T14:26:40.454Z,31.10
2018-07-30T14:30:44.749Z,30.20
2018-07-30T14:34:49.178Z,28.50
2018-07-30T14:38:54.582Z,26.70
2018-07-30T14:42:58.866Z,25.10
2018-07-30T14:47:03.261Z,24.00
2018-07-30T14:51:07.578Z,23.60
2018-07-30T14:55:11.861Z,23.60
2018-07-30T14:59:16.663Z,23.40
2018-07-30T15:03:21.596Z,23.40
2018-07-30T15:07:26.301Z,23.40
2018-07-30T15:11:30.721Z,23.60
2018-07-30T15:15:35.029Z,23.70
2018-07-30T15:19:39.284Z,23.70
2018-07-30T15:23:43.757Z,24.20
2018-07-30T15:27:48.029Z,24.60
2018-07-30T15:31:52.447Z,25.80
2018-07-30T15:35:56.678Z,27.20
2018-07-30T15:40:01.055Z,27.50
2018-07-30T15:44:05.446Z,26.50
2018-07-30T15:48:10.537Z,26.10
2018-07-30T15:52:15.029Z,25.70
2018-07-30T15:56:19.276Z,25.20
2018-07-30T16:00:23.599Z,24.70
2018-07-30T16:04:28.005Z,24.20
2018-07-30T16:08:32.288Z,24.50
2018-07-30T16:12:36.568Z,24.90
2018-07-30T16:16:40.875Z,26.50
2018-07-30T16:20:45.121Z,27.90
2018-07-30T16:24:49.470Z,28.80
2018-07-30T16:28:53.709Z,28.10
2018-07-30T16:32:57.989Z,27.40
2018-07-30T16:37:02.310Z,26.90
2018-07-30T16:41:06.881Z,26.40
2018-07-30T16:45:11.309Z,26.20
2018-07-30T16:49:16.605Z,26.10
2018-07-30T16:53:21.042Z,25.50
2018-07-30T16:57:25.308Z,25.00
2018-07-30T17:01:29.632Z,24.60
2018-07-30T17:05:33.954Z,24.00
2018-07-30T17:09:38.298Z,23.80
2018-07-30T17:13:42.612Z,23.60
2018-07-30T17:17:46.950Z,23.50
2018-07-30T17:21:51.248Z,23.40
2018-07-30T17:25:55.561Z,23.20
2018-07-30T17:30:00.005Z,23.10
2018-07-30T17:34:04.775Z,23.10
2018-07-30T17:38:09.430Z,23.00
2018-07-30T17:42:13.747Z,23.00
2018-07-30T17:46:18.275Z,22.90
2018-07-30T17:50:22.780Z,22.50
2018-07-30T17:54:27.327Z,22.70
2018-07-30T17:58:31.790Z,22.60
2018-07-30T18:02:36.272Z,22.40
2018-07-30T18:06:40.628Z,22.30
2018-07-30T18:10:45.328Z,22.00
2018-07-30T18:14:49.926Z,21.70
2018-07-30T18:18:54.171Z,21.40
2018-07-30T18:22:58.657Z,21.30
2018-07-30T18:27:03.082Z,21.10
2018-07-30T18:31:07.693Z,20.90
2018-07-30T18:35:12.013Z,20.80
2018-07-30T18:39:16.356Z,20.70
2018-07-30T18:43:20.609Z,20.60
2018-07-30T18:47:24.855Z,20.50
2018-07-30T18:51:29.245Z,20.30
2018-07-30T18:55:33.520Z,20.20
2018-07-30T18:59:37.775Z,20.00
2018-07-30T19:03:42.043Z,19.90
2018-07-30T19:07:46.386Z,19.90
2018-07-30T19:11:50.776Z,19.80
2018-07-30T19:15:56.324Z,19.90
2018-07-30T19:20:01.001Z,19.80
2018-07-30T19:24:05.421Z,19.70
2018-07-30T19:28:09.729Z,19.70
2018-07-30T19:32:14.353Z,19.60
2018-07-30T19:36:18.951Z,19.50
2018-07-30T19:40:24.094Z,19.60
2018-07-30T19:44:28.415Z,19.50
2018-07-30T19:48:33.645Z,19.60
2018-07-30T19:52:38.548Z,19.40
2018-07-30T19:56:43.405Z,19.30
2018-07-30T20:00:48.629Z,19.40
2018-07-30T20:04:53.172Z,19.40
2018-07-30T20:08:57.868Z,19.10
2018-07-30T20:13:02.251Z,19.00
2018-07-30T20:17:07.218Z,18.90
2018-07-30T20:21:11.538Z,18.90
2018-07-30T20:25:16.132Z,18.90
2018-07-30T20:29:20.773Z,18.80
2018-07-30T20:33:25.444Z,18.70
2018-07-30T20:37:30.720Z,18.70
2018-07-30T20:41:35.073Z,18.70
2018-07-30T20:45:39.480Z,18.70
2018-07-30T20:49:43.769Z,18.50
2018-07-30T20:53:48.076Z,18.50
2018-07-30T20:57:52.436Z,18.50
2018-07-30T21:01:56.662Z,18.50
2018-07-30T21:06:00.959Z,18.50
2018-07-30T21:10:05.411Z,18.40
2018-07-30T21:14:09.592Z,18.20
2018-07-30T21:18:13.871Z,18.20
2018-07-30T21:22:18.182Z,18.20
2018-07-30T21:26:22.604Z,18.10
2018-07-30T21:30:26.815Z,18.10
2018-07-30T21:34:31.246Z,18.10
2018-07-30T21:38:35.452Z,18.00
2018-07-30T21:42:39.664Z,18.00
2018-07-30T21:46:44.152Z,18.00
2018-07-30T21:50:48.397Z,17.90
2018-07-30T21:54:52.814Z,17.90
2018-07-30T21:58:57.066Z,17.90
2018-07-30T22:03:01.296Z,17.80
2018-07-30T22:07:05.725Z,17.80
2018-07-30T22:11:09.964Z,17.70
2018-07-30T22:15:14.180Z,17.80
2018-07-30T22:19:18.460Z,17.80
2018-07-30T22:23:22.680Z,17.60
2018-07-30T22:27:26.990Z,17.60
2018-07-30T22:31:31.245Z,17.50
2018-07-30T22:35:35.469Z,17.40
2018-07-30T22:39:39.750Z,17.50
2018-07-30T22:43:44.056Z,17.50
2018-07-30T22:47:48.357Z,17.40
2018-07-30T22:51:52.623Z,17.30
2018-07-30T22:55:57.018Z,17.30
2018-07-30T23:00:01.291Z,17.20
2018-07-30T23:04:05.601Z,17.20
2018-07-30T23:08:09.901Z,17.20
2018-07-30T23:12:14.121Z,17.10
2018-07-30T23:16:18.456Z,17.10
2018-07-30T23:20:22.666Z,17.10
2018-07-30T23:24:26.978Z,17.10
2018-07-30T23:28:31.348Z,17.00
2018-07-30T23:32:35.656Z,16.90
2018-07-30T23:36:40.055Z,16.90
2018-07-30T23:40:44.328Z,16.80
2018-07-30T23:44:48.582Z,16.80
2018-07-30T23:48:52.905Z,16.80
2018-07-30T23:52:57.179Z,16.70
2018-07-30T23:57:01.398Z,16.70
